Maple Grove, Minnesota
Current Conditions -  °F | °C
As of 4:20 AM on Thursday 23 Oct 2014 (Local Time) from KMIC Reporting Station
Haze Haze  
Wind Chill: 53°   Ceiling: 900
Heat Index: 53°   Visibility: 6mi
Dew Point: 50°   Wind: 8mph
Humidity: 89%   Direction: 180°S
Pressure: 29.98"   Gusts: NA
Location:  45.1°N, 93.44°W
Report Text: KMIC 230920Z AUTO 18007KT 6SM BR OVC009 12/10 A2998 RMK AO2 T01170100
Loading
Personal Weather Stations






























Interactive Weather Map
Tropical Storm Tracking
New forecast layout! Learn more

10-Day Weather Forecast

Advertisements
Track Severe Weather on mobile